createdAt,value
2019-02-27T00:03:56.115Z,0.38
2019-02-27T00:09:32.661Z,0.32
2019-02-27T00:12:21.851Z,0.34
2019-02-27T00:15:13.083Z,0.35
2019-02-27T00:17:44.683Z,0.34
2019-02-27T00:20:37.738Z,0.30
2019-02-27T00:23:15.192Z,0.25
2019-02-27T00:25:45.767Z,0.23
2019-02-27T00:28:28.210Z,0.26
2019-02-27T00:31:11.550Z,0.25
2019-02-27T00:33:43.177Z,0.24
2019-02-27T00:36:13.969Z,0.24
2019-02-27T00:39:04.721Z,0.23
2019-02-27T00:41:36.924Z,0.21
2019-02-27T00:44:07.517Z,0.17
2019-02-27T00:49:34.392Z,0.00
2019-02-27T00:52:21.811Z,0.01
2019-02-27T00:55:04.660Z,0.02
2019-02-27T00:57:55.554Z,0.04
2019-02-27T01:01:04.317Z,0.02
2019-02-27T01:03:34.924Z,-0.04
2019-02-27T01:06:24.835Z,-0.05
2019-02-27T01:08:59.026Z,-0.03
2019-02-27T01:11:43.520Z,-0.02
2019-02-27T01:14:36.933Z,-0.10
2019-02-27T01:19:56.509Z,-0.25
2019-02-27T01:22:38.668Z,-0.16
2019-02-27T01:25:23.144Z,-0.14
2019-02-27T01:27:54.359Z,-0.14
2019-02-27T01:30:44.052Z,-0.21
2019-02-27T01:33:37.786Z,-0.13
2019-02-27T01:36:11.285Z,-0.12
2019-02-27T01:38:53.168Z,-0.13
2019-02-27T01:41:24.564Z,-0.17
2019-02-27T01:44:01.481Z,-0.19
2019-02-27T01:46:44.047Z,-0.19
2019-02-27T01:49:16.131Z,-0.21
2019-02-27T01:51:59.142Z,-0.27
2019-02-27T01:54:34.823Z,-0.31
2019-02-27T01:57:08.517Z,-0.27
2019-02-27T02:05:50.432Z,-0.34
2019-02-27T02:08:32.165Z,-0.28
2019-02-27T02:11:03.776Z,-0.29
2019-02-27T02:14:14.255Z,-0.34
2019-02-27T02:17:22.888Z,-0.33
2019-02-27T02:20:31.842Z,-0.31
2019-02-27T02:26:49.107Z,-0.39
2019-02-27T02:29:47.590Z,-0.40
2019-02-27T02:32:41.885Z,-0.42
2019-02-27T02:35:55.947Z,-0.43
2019-02-27T02:39:05.931Z,-0.43
2019-02-27T02:42:24.522Z,-0.43
2019-02-27T02:45:37.571Z,-0.47
2019-02-27T02:48:46.199Z,-0.50
2019-02-27T02:51:50.005Z,-0.56
2019-02-27T02:55:12.728Z,-0.54
2019-02-27T02:58:12.427Z,-0.54
2019-02-27T03:01:15.268Z,-0.62
2019-02-27T03:04:15.093Z,-0.64
2019-02-27T03:07:23.793Z,-0.64
2019-02-27T03:10:33.982Z,-0.68
2019-02-27T03:13:43.818Z,-0.68
2019-02-27T03:16:27.338Z,-0.65
2019-02-27T03:19:41.265Z,-0.65
2019-02-27T03:22:51.762Z,-0.65
2019-02-27T03:25:44.768Z,-0.63
2019-02-27T03:28:53.712Z,-0.65
2019-02-27T03:31:57.874Z,-0.67
2019-02-27T03:35:03.643Z,-0.68
2019-02-27T03:38:12.340Z,-0.75
2019-02-27T03:41:22.837Z,-0.71
2019-02-27T03:44:40.700Z,-0.66
2019-02-27T03:47:52.162Z,-0.66
2019-02-27T03:54:09.106Z,-0.68
2019-02-27T03:57:02.113Z,-0.73
2019-02-27T04:00:11.365Z,-0.74
2019-02-27T04:03:07.351Z,-0.73
2019-02-27T04:06:20.117Z,-0.70
2019-02-27T04:09:18.613Z,-0.75
2019-02-27T04:11:53.693Z,-0.71
2019-02-27T04:14:43.735Z,-0.77
2019-02-27T04:17:14.314Z,-0.77
2019-02-27T04:19:46.559Z,-0.84
2019-02-27T04:25:13.653Z,-0.80
2019-02-27T04:30:35.415Z,-0.84
2019-02-27T04:33:06.036Z,-0.83
2019-02-27T04:35:47.936Z,-0.88
2019-02-27T04:38:43.317Z,-0.87
2019-02-27T04:41:17.858Z,-0.88
2019-02-27T04:43:51.733Z,-0.85
2019-02-27T04:46:41.406Z,-0.87
2019-02-27T04:49:12.023Z,-0.92
2019-02-27T04:51:42.649Z,-0.95
2019-02-27T04:54:25.297Z,-0.96
2019-02-27T04:57:08.158Z,-0.96
2019-02-27T04:59:39.104Z,-0.98
2019-02-27T05:02:29.021Z,-0.95
2019-02-27T05:05:06.148Z,-0.97
2019-02-27T05:07:42.955Z,-0.96
2019-02-27T05:10:24.735Z,-0.98
2019-02-27T05:12:55.349Z,-1.01
2019-02-27T05:15:26.020Z,-1.06
2019-02-27T05:18:08.000Z,-1.13
2019-02-27T05:20:50.171Z,-1.09
2019-02-27T05:23:33.434Z,-1.08
2019-02-27T05:26:03.882Z,-1.07
2019-02-27T05:28:46.583Z,-1.09
2019-02-27T05:31:19.018Z,-1.07
2019-02-27T05:34:28.784Z,-1.10
2019-02-27T05:43:33.778Z,-1.17
2019-02-27T05:48:47.079Z,-1.17
2019-02-27T05:54:50.030Z,-1.22
2019-02-27T05:57:25.332Z,-1.24
2019-02-27T06:06:28.259Z,-1.21
2019-02-27T06:08:52.093Z,-1.21
2019-02-27T06:11:33.101Z,-1.22
2019-02-27T06:14:54.786Z,-1.22
2019-02-27T06:23:49.032Z,-1.24
2019-02-27T06:26:32.195Z,-1.20
2019-02-27T06:29:37.831Z,-1.09
2019-02-27T06:32:22.182Z,-1.05
2019-02-27T06:35:13.755Z,-1.01
2019-02-27T06:40:35.709Z,-0.96
2019-02-27T06:43:18.770Z,-0.90
2019-02-27T06:46:00.920Z,-0.83
2019-02-27T06:48:31.521Z,-0.77
2019-02-27T06:51:36.663Z,-0.70
2019-02-27T06:54:02.050Z,-0.66
2019-02-27T06:57:12.095Z,-0.59
2019-02-27T07:05:48.247Z,-0.32
2019-02-27T07:14:39.081Z,-0.03
2019-02-27T07:17:15.737Z,0.12
2019-02-27T07:20:05.724Z,0.24
2019-02-27T07:22:50.942Z,0.44
2019-02-27T07:25:36.345Z,0.53
2019-02-27T07:28:25.828Z,0.63
2019-02-27T07:31:07.407Z,0.77
2019-02-27T07:33:40.576Z,1.03
2019-02-27T07:36:36.022Z,1.16
2019-02-27T07:39:15.207Z,1.31
2019-02-27T07:42:04.872Z,1.59
2019-02-27T07:44:35.894Z,1.88
2019-02-27T07:50:54.701Z,2.37
2019-02-27T07:53:44.448Z,2.49
2019-02-27T07:56:15.276Z,2.55
2019-02-27T08:01:27.558Z,3.12
2019-02-27T08:04:19.070Z,3.29
2019-02-27T08:06:42.969Z,3.52
2019-02-27T08:09:45.925Z,3.61
2019-02-27T08:12:17.525Z,3.78
2019-02-27T08:15:14.326Z,3.92
2019-02-27T08:17:50.854Z,4.07
2019-02-27T08:20:32.375Z,4.17
2019-02-27T08:23:15.515Z,4.25
2019-02-27T08:25:46.332Z,4.41
2019-02-27T08:28:17.128Z,4.51
2019-02-27T08:34:01.054Z,4.76
2019-02-27T08:36:32.124Z,4.95
2019-02-27T08:39:24.429Z,5.05
2019-02-27T08:41:55.120Z,5.25
2019-02-27T08:44:38.270Z,5.43
2019-02-27T08:47:10.860Z,5.58
2019-02-27T08:50:34.904Z,5.72
2019-02-27T08:52:58.881Z,6.06
2019-02-27T08:55:29.447Z,6.27
2019-02-27T08:58:19.210Z,6.48
2019-02-27T09:00:51.804Z,6.71
2019-02-27T09:03:30.408Z,6.98
2019-02-27T09:06:01.081Z,7.12
2019-02-27T09:08:44.326Z,7.33
2019-02-27T09:11:26.684Z,7.59
2019-02-27T09:16:53.765Z,8.16
2019-02-27T09:19:35.981Z,8.47
2019-02-27T09:22:08.515Z,8.74
2019-02-27T09:24:58.268Z,9.04
2019-02-27T09:27:41.128Z,9.20
2019-02-27T09:36:35.725Z,10.02
2019-02-27T09:42:13.282Z,10.64
2019-02-27T09:44:45.080Z,10.94
2019-02-27T09:47:23.143Z,11.19
2019-02-27T09:50:19.264Z,11.41
2019-02-27T09:52:51.927Z,11.61
2019-02-27T09:56:01.083Z,11.84
2019-02-27T09:58:33.265Z,12.01
2019-02-27T10:04:36.537Z,12.64
2019-02-27T10:07:07.262Z,12.88
2019-02-27T10:09:48.996Z,13.26
2019-02-27T10:12:19.646Z,13.28
2019-02-27T10:14:50.913Z,13.49
2019-02-27T10:17:28.650Z,13.66
2019-02-27T10:23:09.306Z,13.91
2019-02-27T10:25:43.466Z,13.97
2019-02-27T10:28:27.085Z,13.86
2019-02-27T10:30:57.717Z,14.10
2019-02-27T10:37:18.241Z,14.60
2019-02-27T10:39:52.921Z,14.88
2019-02-27T10:42:42.778Z,15.28
2019-02-27T10:45:51.233Z,15.36
2019-02-27T10:51:24.638Z,15.35
2019-02-27T10:54:17.184Z,15.48
2019-02-27T10:57:31.474Z,15.69
2019-02-27T11:02:53.594Z,16.07
2019-02-27T11:06:06.048Z,16.49
2019-02-27T11:08:58.840Z,16.28
2019-02-27T11:11:32.177Z,16.09
2019-02-27T11:14:23.757Z,16.23
2019-02-27T11:16:55.409Z,16.52
2019-02-27T11:25:42.115Z,17.17
2019-02-27T11:31:35.119Z,17.89
2019-02-27T11:34:26.689Z,17.97
2019-02-27T11:39:39.100Z,18.22
2019-02-27T11:42:23.592Z,18.24
2019-02-27T11:44:54.554Z,17.72
2019-02-27T11:47:25.305Z,17.58
2019-02-27T11:50:10.483Z,17.88
2019-02-27T11:52:56.089Z,18.01
2019-02-27T11:58:22.261Z,17.98
2019-02-27T12:04:07.385Z,17.81
2019-02-27T12:06:57.390Z,17.40
2019-02-27T12:09:47.652Z,16.95
2019-02-27T12:12:41.060Z,16.78
2019-02-27T12:15:12.849Z,17.14
2019-02-27T12:21:16.170Z,17.23
2019-02-27T12:32:16.671Z,16.52
2019-02-27T12:34:59.099Z,16.34
2019-02-27T12:37:34.087Z,16.44
2019-02-27T12:40:27.929Z,16.45
2019-02-27T12:45:57.674Z,16.27
2019-02-27T12:49:13.953Z,16.13
2019-02-27T12:54:49.482Z,15.90
2019-02-27T12:57:21.959Z,16.10
2019-02-27T13:00:31.891Z,16.19
2019-02-27T13:03:02.600Z,15.98
2019-02-27T13:08:46.735Z,15.95
2019-02-27T13:11:19.045Z,15.97
2019-02-27T13:14:08.757Z,15.87
2019-02-27T13:16:43.478Z,15.80
2019-02-27T13:19:17.312Z,15.79
2019-02-27T13:24:50.946Z,15.57
2019-02-27T13:27:33.592Z,15.52
2019-02-27T13:30:23.527Z,15.62
2019-02-27T13:33:13.281Z,15.41
2019-02-27T13:35:46.800Z,15.34
2019-02-27T13:48:41.973Z,15.16
2019-02-27T13:51:15.157Z,15.16
2019-02-27T13:54:00.549Z,15.21
2019-02-27T13:56:53.905Z,15.13
2019-02-27T14:02:46.273Z,15.07
2019-02-27T14:05:17.665Z,15.11
2019-02-27T14:08:01.451Z,15.06
2019-02-27T14:10:32.365Z,15.04
2019-02-27T14:13:08.781Z,15.01
2019-02-27T14:15:45.284Z,14.98
2019-02-27T14:18:17.490Z,14.93
2019-02-27T14:24:48.093Z,14.81
2019-02-27T14:27:14.580Z,14.81
2019-02-27T14:33:14.488Z,14.72
2019-02-27T14:35:56.916Z,14.76
2019-02-27T14:41:51.390Z,14.77
2019-02-27T14:50:24.340Z,14.71
2019-02-27T14:59:21.750Z,14.52
2019-02-27T15:02:05.397Z,14.39
2019-02-27T15:11:27.097Z,14.01
2019-02-27T15:14:04.930Z,13.74
2019-02-27T15:19:48.941Z,13.35
2019-02-27T15:22:20.528Z,13.09
2019-02-27T15:25:30.659Z,12.87
2019-02-27T15:28:05.602Z,12.57
2019-02-27T15:30:55.333Z,12.37
2019-02-27T15:33:56.473Z,12.16
2019-02-27T15:39:42.116Z,11.73
2019-02-27T15:42:12.973Z,11.55
2019-02-27T15:44:45.362Z,11.33
2019-02-27T15:47:32.708Z,11.18
2019-02-27T15:56:05.421Z,10.68
2019-02-27T16:01:43.924Z,10.35
2019-02-27T16:07:29.892Z,10.20
2019-02-27T16:10:23.098Z,10.11
2019-02-27T16:22:54.602Z,9.93
2019-02-27T16:25:25.436Z,9.76
2019-02-27T16:31:13.477Z,9.53
2019-02-27T16:33:48.263Z,9.40
2019-02-27T16:36:36.751Z,9.32
2019-02-27T16:39:27.391Z,9.26
2019-02-27T16:42:07.410Z,9.12
2019-02-27T16:45:16.092Z,9.03
2019-02-27T16:51:00.769Z,8.68
2019-02-27T17:02:35.500Z,7.88
2019-02-27T17:05:14.227Z,7.66
2019-02-27T17:10:51.763Z,7.39
2019-02-27T17:13:39.378Z,7.25
2019-02-27T17:16:11.914Z,7.10
2019-02-27T17:22:25.985Z,6.84
2019-02-27T17:25:11.434Z,6.67
2019-02-27T17:27:37.086Z,6.51
2019-02-27T17:30:28.878Z,6.46
2019-02-27T17:33:12.833Z,6.38
2019-02-27T17:36:00.527Z,6.31
2019-02-27T17:47:47.774Z,5.99
2019-02-27T17:50:56.696Z,5.92
2019-02-27T17:53:37.752Z,5.92
2019-02-27T17:59:50.352Z,5.89
2019-02-27T18:03:05.098Z,5.84
2019-02-27T18:05:39.716Z,5.82
2019-02-27T18:08:15.962Z,5.76
2019-02-27T18:11:06.045Z,5.81
2019-02-27T18:26:04.948Z,5.47
2019-02-27T18:31:46.131Z,5.35
2019-02-27T18:34:30.613Z,5.30
2019-02-27T18:37:08.568Z,5.30
2019-02-27T18:39:41.057Z,5.29
2019-02-27T18:42:17.240Z,5.23
2019-02-27T18:54:03.152Z,5.00
2019-02-27T18:59:57.582Z,4.91
2019-02-27T19:03:25.912Z,4.87
2019-02-27T19:09:20.286Z,4.75
2019-02-27T19:12:06.979Z,4.66
2019-02-27T19:26:59.176Z,4.43
2019-02-27T19:29:31.872Z,4.36
2019-02-27T19:32:50.139Z,4.31
2019-02-27T19:35:34.487Z,4.29
2019-02-27T19:44:03.105Z,4.23
2019-02-27T19:49:43.896Z,4.28
2019-02-27T19:52:55.208Z,4.25
2019-02-27T20:01:12.435Z,4.27
2019-02-27T20:06:58.335Z,4.46
2019-02-27T20:10:15.103Z,5.27
2019-02-27T20:19:42.608Z,5.72
2019-02-27T20:25:35.692Z,6.30
2019-02-27T20:28:08.894Z,6.82
2019-02-27T20:30:51.684Z,7.21
2019-02-27T20:45:05.476Z,8.01
2019-02-27T20:47:59.990Z,8.00
2019-02-27T20:56:45.092Z,8.04
2019-02-27T20:59:26.081Z,8.05
2019-02-27T21:11:38.683Z,8.24
2019-02-27T21:20:25.323Z,8.04
2019-02-27T21:23:52.081Z,7.91
2019-02-27T21:29:18.056Z,8.00
2019-02-27T21:31:53.268Z,8.15
2019-02-27T21:37:45.587Z,8.18
2019-02-27T21:40:22.150Z,8.12
2019-02-27T21:46:08.314Z,8.19
2019-02-27T21:48:41.082Z,8.15
2019-02-27T21:51:23.251Z,8.32
2019-02-27T21:54:08.150Z,8.39
2019-02-27T21:56:59.566Z,8.45
2019-02-27T21:59:30.391Z,8.43
2019-02-27T22:02:02.495Z,8.50
2019-02-27T22:04:52.436Z,8.48
2019-02-27T22:10:23.317Z,8.64
2019-02-27T22:13:12.931Z,8.59
2019-02-27T22:15:43.590Z,8.54
2019-02-27T22:18:33.582Z,8.49
2019-02-27T22:21:04.638Z,8.51
2019-02-27T22:23:44.870Z,8.51
2019-02-27T22:27:02.707Z,8.42
2019-02-27T22:29:55.844Z,8.46
2019-02-27T22:33:15.837Z,8.58
2019-02-27T22:35:57.884Z,8.57
2019-02-27T22:42:14.437Z,8.34
2019-02-27T22:44:44.686Z,8.39
2019-02-27T22:50:13.558Z,8.27
2019-02-27T22:53:03.528Z,8.08
2019-02-27T22:55:36.216Z,8.08
2019-02-27T23:04:53.021Z,8.25
2019-02-27T23:07:22.310Z,8.19
2019-02-27T23:13:47.439Z,8.24
2019-02-27T23:16:22.737Z,8.26
2019-02-27T23:19:13.135Z,8.15
2019-02-27T23:24:38.363Z,8.11
2019-02-27T23:29:58.497Z,8.03
2019-02-27T23:32:41.051Z,7.96
2019-02-27T23:38:13.239Z,7.75
2019-02-27T23:43:27.606Z,7.91
2019-02-27T23:46:10.280Z,7.98
2019-02-27T23:48:59.909Z,8.02
2019-02-27T23:51:30.566Z,7.91
2019-02-27T23:54:20.468Z,8.03
2019-02-27T23:56:52.232Z,8.01
2019-02-27T23:59:29.080Z,8.06
